Time;durP1;ratioP1;P1;durP2;ratioP2;P2;SDS_P1;SDS_P2;PMS_P1;PMS_P2;Temp;Humidity;BMP_temperature;BMP_pressure;BME280_temperature;BME280_humidity;BME280_pressure;Samples;Min_cycle;Max_cycle;Signal;HPM_P1;HPM_P2
2023/01/12 00:00:35;;;;;;;21.47;5.43;;;7.40;99.90;;;;;;4996553;28;20181;-67
2023/01/12 00:03:01;;;;;;;8.77;4.70;;;7.40;99.90;;;;;;4996007;28;20199;-67
2023/01/12 00:05:27;;;;;;;12.37;4.90;;;7.40;99.90;;;;;;4996779;28;20176;-67
2023/01/12 00:07:53;;;;;;;17.20;5.13;;;7.50;99.90;;;;;;4996111;28;20180;-67
2023/01/12 00:10:18;;;;;;;13.40;4.90;;;7.50;99.90;;;;;;4996627;28;20240;-66
2023/01/12 00:12:44;;;;;;;14.97;5.03;;;7.50;99.90;;;;;;4995705;28;20660;-67
2023/01/12 00:15:10;;;;;;;11.60;5.30;;;7.50;99.90;;;;;;4995736;28;20177;-67
2023/01/12 00:17:36;;;;;;;11.57;4.77;;;7.50;99.90;;;;;;5010880;28;20181;-67
2023/01/12 00:20:03;;;;;;;9.57;5.17;;;7.50;99.90;;;;;;4995937;28;20608;-67
2023/01/12 00:22:29;;;;;;;11.37;4.60;;;7.50;99.90;;;;;;4994431;28;20200;-67
2023/01/12 00:24:54;;;;;;;8.30;4.40;;;7.60;99.90;;;;;;5010822;28;20172;-67
2023/01/12 00:27:21;;;;;;;11.77;4.77;;;7.50;99.90;;;;;;5010798;28;20640;-67
2023/01/12 00:29:47;;;;;;;12.67;4.70;;;7.60;99.90;;;;;;5010627;28;20590;-67
2023/01/12 00:32:15;;;;;;;13.23;4.73;;;7.60;99.90;;;;;;4995499;28;20636;-67
2023/01/12 00:34:42;;;;;;;8.77;4.97;;;7.60;99.90;;;;;;4995825;28;20173;-67
2023/01/12 00:37:08;;;;;;;11.93;5.10;;;7.60;99.90;;;;;;4995883;28;20287;-67
2023/01/12 00:39:38;;;;;;;13.90;5.13;;;7.60;99.90;;;;;;4994180;28;20208;-67
2023/01/12 00:47:33;;;;;;;8.97;4.50;;;7.60;99.90;;;;;;4995943;28;20166;-67
2023/01/12 00:49:58;;;;;;;10.97;5.23;;;7.60;99.90;;;;;;4995447;28;20688;-67
2023/01/12 00:52:24;;;;;;;10.33;5.13;;;7.70;99.90;;;;;;5010504;28;20205;-67
2023/01/12 00:54:50;;;;;;;11.30;5.07;;;7.60;99.90;;;;;;5010124;28;20188;-65
2023/01/12 00:57:18;;;;;;;7.03;4.53;;;7.60;99.90;;;;;;4995607;28;20204;-65
2023/01/12 00:59:43;;;;;;;10.87;4.70;;;7.60;99.90;;;;;;5010006;28;20234;-66
2023/01/12 01:02:10;;;;;;;13.03;4.73;;;7.60;99.90;;;;;;4994945;28;20661;-64
2023/01/12 01:04:36;;;;;;;10.73;4.70;;;7.60;99.90;;;;;;4995246;28;20168;-64
2023/01/12 01:07:02;;;;;;;9.53;4.30;;;7.60;99.90;;;;;;5009939;28;20192;-64
2023/01/12 01:09:29;;;;;;;12.90;4.90;;;7.60;99.90;;;;;;4994976;28;20644;-64
2023/01/12 01:11:56;;;;;;;11.50;4.80;;;7.60;99.90;;;;;;4994843;28;20197;-64
2023/01/12 01:14:22;;;;;;;12.53;5.40;;;7.60;99.90;;;;;;4995175;28;20184;-64
2023/01/12 01:16:48;;;;;;;7.70;4.60;;;7.60;99.90;;;;;;4994705;28;20208;-64
2023/01/12 01:19:14;;;;;;;11.87;5.00;;;7.70;99.90;;;;;;5009887;28;20704;-64
2023/01/12 01:21:40;;;;;;;5.97;4.20;;;7.60;99.90;;;;;;4994944;28;20224;-64
2023/01/12 01:24:12;;;;;;;8.90;4.83;;;7.70;99.90;;;;;;4994670;28;20181;-64
2023/01/12 01:26:39;;;;;;;7.57;4.30;;;7.70;99.90;;;;;;4995068;28;20169;-64
2023/01/12 01:29:05;;;;;;;10.90;4.50;;;7.70;99.90;;;;;;5009865;28;20275;-64
2023/01/12 01:31:31;;;;;;;9.03;4.30;;;7.70;99.90;;;;;;4994437;28;20236;-64
2023/01/12 01:33:57;;;;;;;7.40;4.70;;;7.70;99.90;;;;;;4994836;28;20180;-64
2023/01/12 01:36:22;;;;;;;11.53;4.67;;;7.70;99.90;;;;;;4994486;28;20254;-64
2023/01/12 01:38:49;;;;;;;8.80;4.77;;;7.70;99.90;;;;;;4994954;28;20204;-64
2023/01/12 01:41:21;;;;;;;13.20;5.17;;;7.70;99.90;;;;;;4995506;28;20196;-64
2023/01/12 01:43:52;;;;;;;6.73;5.00;;;7.70;99.90;;;;;;4995684;28;20203;-64
2023/01/12 01:46:30;;;;;;;7.30;4.03;;;7.70;99.90;;;;;;4995217;28;20239;-64
2023/01/12 01:49:00;;;;;;;16.97;4.87;;;7.70;99.90;;;;;;4994913;28;20247;-64
2023/01/12 01:51:26;;;;;;;16.70;5.83;;;7.70;99.90;;;;;;4993830;28;20545;-64
2023/01/12 01:53:52;;;;;;;15.07;5.23;;;7.70;99.90;;;;;;4994324;28;20191;-64
2023/01/12 01:56:29;;;;;;;8.60;4.77;;;7.70;99.90;;;;;;4994899;28;20207;-64
2023/01/12 01:59:11;;;;;;;7.37;4.90;;;7.60;99.90;;;;;;4993195;28;20591;-64
2023/01/12 02:01:37;;;;;;;9.00;4.70;;;7.60;99.90;;;;;;4993985;28;20286;-64
2023/01/12 02:04:04;;;;;;;7.33;4.73;;;7.70;99.90;;;;;;4994320;28;20176;-64
2023/01/12 02:06:31;;;;;;;12.20;5.33;;;7.70;99.90;;;;;;4994081;28;20266;-64
2023/01/12 02:09:06;;;;;;;11.67;5.03;;;7.70;99.90;;;;;;4992991;28;20180;-64
2023/01/12 02:17:32;;;;;;;8.63;6.00;;;7.80;99.90;;;;;;4992662;28;20715;-64
2023/01/12 02:20:28;;;;;;;12.67;5.17;;;7.80;99.90;;;;;;4993927;28;20180;-64
2023/01/12 02:23:25;;;;;;;9.63;5.30;;;7.90;99.90;;;;;;4993884;28;20238;-64
2023/01/12 02:26:24;;;;;;;17.43;5.37;;;7.90;99.90;;;;;;4993946;28;20572;-64
2023/01/12 02:28:49;;;;;;;13.63;5.50;;;8.00;99.90;;;;;;4993855;28;20196;-64
2023/01/12 02:31:33;;;;;;;16.50;5.63;;;8.00;99.90;;;;;;4993657;28;20286;-64
2023/01/12 02:34:30;;;;;;;12.37;5.23;;;8.00;99.90;;;;;;4993869;28;20234;-65
2023/01/12 02:36:58;;;;;;;16.17;5.80;;;8.10;99.90;;;;;;4993790;28;20630;-65
2023/01/12 02:39:48;;;;;;;15.67;5.77;;;8.10;99.90;;;;;;5009032;28;20256;-65
2023/01/12 02:42:41;;;;;;;14.33;5.73;;;8.00;99.90;;;;;;4997522;28;20220;-66
2023/01/12 02:45:23;;;;;;;14.53;5.63;;;8.00;99.90;;;;;;4997740;28;20196;-66
2023/01/12 02:48:03;;;;;;;11.87;5.27;;;8.00;99.90;;;;;;4996389;28;20169;-68
2023/01/12 02:51:21;;;;;;;14.73;5.47;;;8.00;99.90;;;;;;4997963;28;20181;-68
2023/01/12 02:53:49;;;;;;;13.10;5.40;;;8.00;99.90;;;;;;4980273;28;20192;-65
2023/01/12 02:56:28;;;;;;;12.40;5.83;;;8.00;99.90;;;;;;4997127;28;20576;-64
2023/01/12 02:58:58;;;;;;;21.23;6.10;;;8.00;99.90;;;;;;4997612;28;20546;-64
2023/01/12 03:01:26;;;;;;;15.27;5.70;;;8.10;99.90;;;;;;4997032;28;20572;-64
2023/01/12 03:03:55;;;;;;;10.90;5.47;;;8.00;99.90;;;;;;4997178;28;20547;-64
2023/01/12 03:06:21;;;;;;;14.57;6.73;;;8.00;99.90;;;;;;4997572;28;20754;-67
2023/01/12 03:08:50;;;;;;;14.27;5.97;;;8.00;99.90;;;;;;4997421;28;20225;-68
2023/01/12 03:11:21;;;;;;;13.03;6.10;;;8.00;99.90;;;;;;4997113;28;20200;-65
2023/01/12 03:13:56;;;;;;;13.77;6.17;;;8.00;99.90;;;;;;4997106;28;20176;-65
2023/01/12 03:16:29;;;;;;;14.23;5.13;;;8.00;99.90;;;;;;4996847;28;20197;-69
2023/01/12 03:19:04;;;;;;;15.87;6.57;;;8.00;99.90;;;;;;5012309;28;20173;-64
2023/01/12 03:21:46;;;;;;;13.37;6.07;;;8.10;99.90;;;;;;4996884;28;20192;-64
2023/01/12 03:24:18;;;;;;;18.80;5.57;;;8.10;99.90;;;;;;4997281;28;20207;-64
2023/01/12 03:26:51;;;;;;;13.80;5.33;;;8.10;99.90;;;;;;4996891;28;20185;-64
2023/01/12 03:29:34;;;;;;;21.37;6.60;;;8.00;99.90;;;;;;4997273;28;20176;-64
2023/01/12 03:32:00;;;;;;;15.27;5.80;;;8.00;99.90;;;;;;5011643;28;20295;-63
2023/01/12 03:34:26;;;;;;;17.60;5.37;;;8.00;99.90;;;;;;4996694;28;20200;-64
2023/01/12 03:37:13;;;;;;;9.07;4.90;;;8.00;99.90;;;;;;5011573;28;20209;-64
2023/01/12 03:39:58;;;;;;;21.07;5.20;;;8.00;99.90;;;;;;4996772;28;20247;-64
2023/01/12 03:42:57;;;;;;;13.40;5.20;;;8.00;99.90;;;;;;4996557;28;20243;-64
2023/01/12 03:46:01;;;;;;;11.50;5.17;;;8.00;99.90;;;;;;4996445;28;20624;-63
2023/01/12 03:48:41;;;;;;;12.47;5.27;;;8.00;99.90;;;;;;4993693;28;20192;-64
2023/01/12 03:51:16;;;;;;;14.47;5.43;;;7.90;99.90;;;;;;4996234;28;20544;-64
2023/01/12 03:53:44;;;;;;;12.77;4.73;;;7.90;99.90;;;;;;4996710;28;20168;-64
2023/01/12 03:56:13;;;;;;;15.30;5.63;;;7.80;99.90;;;;;;4996163;28;20208;-64
2023/01/12 03:58:39;;;;;;;10.67;4.60;;;7.80;99.90;;;;;;4994921;28;20218;-64
2023/01/12 04:01:05;;;;;;;13.07;5.07;;;7.80;99.90;;;;;;4996070;28;20185;-64
2023/01/12 04:03:31;;;;;;;10.07;5.13;;;7.80;99.90;;;;;;4996109;28;20188;-64
2023/01/12 04:05:56;;;;;;;11.30;4.87;;;7.80;99.90;;;;;;4995955;28;20259;-64
2023/01/12 04:08:22;;;;;;;9.60;5.03;;;7.80;99.90;;;;;;5011061;28;20181;-64
2023/01/12 04:10:48;;;;;;;10.27;4.50;;;7.80;99.90;;;;;;4995897;28;20231;-64
2023/01/12 04:13:13;;;;;;;7.77;4.70;;;7.70;99.90;;;;;;4996210;28;20235;-64
2023/01/12 04:15:42;;;;;;;13.27;5.43;;;7.70;99.90;;;;;;5010710;28;20212;-64
2023/01/12 04:18:09;;;;;;;11.50;4.87;;;7.70;99.90;;;;;;4996045;28;20173;-64
2023/01/12 04:20:34;;;;;;;9.20;4.73;;;7.70;99.90;;;;;;4994521;28;20275;-65
2023/01/12 04:23:00;;;;;;;11.80;4.70;;;7.70;99.90;;;;;;4995944;28;20235;-67
2023/01/12 04:25:26;;;;;;;7.27;4.57;;;7.70;99.90;;;;;;4996269;28;20181;-67
2023/01/12 04:28:00;;;;;;;9.23;4.80;;;7.70;99.90;;;;;;5010969;28;20656;-65
2023/01/12 04:30:28;;;;;;;7.13;4.53;;;7.70;99.90;;;;;;4995501;28;20192;-66
2023/01/12 04:32:54;;;;;;;8.10;4.50;;;7.70;99.90;;;;;;4995618;28;20208;-67
2023/01/12 04:35:21;;;;;;;8.03;4.07;;;7.70;99.90;;;;;;4995469;28;20553;-64
2023/01/12 04:37:46;;;;;;;10.13;4.83;;;7.70;99.90;;;;;;4994666;28;20180;-68
2023/01/12 04:40:14;;;;;;;4.70;4.30;;;7.70;99.90;;;;;;4996111;28;20260;-68
2023/01/12 04:43:00;;;;;;;10.53;4.70;;;7.70;99.90;;;;;;4995659;28;20294;-68
2023/01/12 04:45:38;;;;;;;6.37;4.33;;;7.70;99.90;;;;;;5010739;28;20263;-68
2023/01/12 04:48:11;;;;;;;7.47;4.20;;;7.70;99.90;;;;;;4995757;28;20173;-68
2023/01/12 04:50:38;;;;;;;7.53;4.53;;;7.80;99.90;;;;;;4996161;28;20184;-68
2023/01/12 04:53:05;;;;;;;4.30;3.90;;;7.80;99.90;;;;;;4995784;28;20208;-68
2023/01/12 04:55:34;;;;;;;6.40;4.67;;;7.80;99.90;;;;;;4996042;28;20204;-68
2023/01/12 04:57:59;;;;;;;4.83;4.33;;;7.80;99.90;;;;;;4995837;28;20204;-68
2023/01/12 05:00:25;;;;;;;8.60;4.23;;;7.80;99.90;;;;;;5009908;28;20642;-67
2023/01/12 05:03:01;;;;;;;4.20;3.80;;;7.70;99.90;;;;;;5009355;28;20200;-68
2023/01/12 05:05:28;;;;;;;5.93;4.27;;;7.70;99.90;;;;;;5010378;28;20637;-69
2023/01/12 05:10:38;;;;;;;7.50;4.37;;;7.80;99.90;;;;;;4995443;28;20195;-68
2023/01/12 05:13:04;;;;;;;7.57;4.50;;;7.80;99.90;;;;;;4995267;28;20287;-68
2023/01/12 05:15:30;;;;;;;4.40;4.00;;;7.80;99.90;;;;;;4995588;28;20347;-68
2023/01/12 05:17:56;;;;;;;9.03;4.33;;;7.70;99.90;;;;;;4995651;28;20184;-68
2023/01/12 05:20:22;;;;;;;4.20;3.80;;;7.70;99.90;;;;;;4993926;28;20183;-68
2023/01/12 05:22:50;;;;;;;6.80;4.33;;;7.70;99.90;;;;;;4994004;28;20290;-68
2023/01/12 05:25:16;;;;;;;4.57;3.80;;;7.70;99.90;;;;;;4995615;28;20540;-68
2023/01/12 05:27:41;;;;;;;6.03;4.17;;;7.70;99.90;;;;;;4995329;28;20235;-68
2023/01/12 05:30:08;;;;;;;4.27;3.70;;;7.70;99.90;;;;;;4995075;28;20621;-68
2023/01/12 05:32:38;;;;;;;5.60;3.47;;;7.80;99.90;;;;;;4994794;28;20211;-70
2023/01/12 05:35:06;;;;;;;4.00;3.60;;;7.70;99.90;;;;;;4994877;28;20175;-63
2023/01/12 05:37:32;;;;;;;4.77;3.67;;;7.70;99.90;;;;;;4993716;28;20590;-64
2023/01/12 05:39:58;;;;;;;5.03;3.60;;;7.80;99.90;;;;;;4995526;28;20181;-68
2023/01/12 05:45:10;;;;;;;6.07;3.90;;;7.80;99.90;;;;;;4995042;28;20199;-67
2023/01/12 05:47:36;;;;;;;5.40;3.50;;;7.70;99.90;;;;;;5009502;28;20191;-68
2023/01/12 05:50:03;;;;;;;3.70;3.40;;;7.70;99.90;;;;;;4994683;28;20191;-67
2023/01/12 05:52:28;;;;;;;6.17;3.83;;;7.70;99.90;;;;;;4994168;28;20584;-67
2023/01/12 05:54:54;;;;;;;4.23;3.80;;;7.70;99.90;;;;;;5009379;28;20184;-67
2023/01/12 05:57:20;;;;;;;3.93;3.40;;;7.70;99.90;;;;;;4993127;28;20298;-65
2023/01/12 05:59:45;;;;;;;5.17;3.73;;;7.60;99.90;;;;;;5009286;28;20185;-65
2023/01/12 06:02:15;;;;;;;5.43;3.43;;;7.60;99.90;;;;;;4994206;28;20286;-65
2023/01/12 06:04:42;;;;;;;4.37;3.67;;;7.60;99.90;;;;;;4994783;28;20161;-66
2023/01/12 06:07:11;;;;;;;4.37;3.43;;;7.60;99.90;;;;;;4994365;28;20202;-65
2023/01/12 06:09:37;;;;;;;4.83;3.23;;;7.50;99.90;;;;;;4994369;28;20227;-65
2023/01/12 06:14:47;;;;;;;3.90;3.50;;;7.60;99.90;;;;;;4996761;28;20198;-66
2023/01/12 06:17:13;;;;;;;3.77;3.47;;;7.60;99.90;;;;;;5013192;28;20656;-67
2023/01/12 06:19:39;;;;;;;4.93;3.63;;;7.50;99.90;;;;;;4998036;28;20165;-67
2023/01/12 06:22:07;;;;;;;4.87;3.40;;;7.50;99.90;;;;;;4998066;28;20201;-67
2023/01/12 06:24:32;;;;;;;3.90;3.60;;;7.40;99.90;;;;;;4998387;28;20176;-68
2023/01/12 06:26:58;;;;;;;7.03;3.40;;;7.40;99.90;;;;;;4998049;28;20188;-67
2023/01/12 06:29:24;;;;;;;3.50;3.20;;;7.40;99.90;;;;;;4998337;28;20625;-67
2023/01/12 06:31:50;;;;;;;4.53;3.30;;;7.40;99.90;;;;;;5012727;28;20632;-67
2023/01/12 06:34:16;;;;;;;3.70;3.40;;;7.40;99.90;;;;;;4997898;28;20188;-67
2023/01/12 06:36:42;;;;;;;3.30;3.10;;;7.30;99.90;;;;;;4998053;28;20208;-72
2023/01/12 06:39:08;;;;;;;4.27;3.23;;;7.30;99.90;;;;;;4996349;28;20188;-68
2023/01/12 06:44:18;;;;;;;4.83;3.40;;;7.30;99.90;;;;;;4997401;28;20316;-68
2023/01/12 06:46:44;;;;;;;4.33;3.90;;;7.30;99.90;;;;;;4996424;28;20185;-68
2023/01/12 06:49:10;;;;;;;3.50;3.20;;;7.30;99.90;;;;;;4996141;28;20192;-68
2023/01/12 06:51:36;;;;;;;4.90;3.40;;;7.30;99.90;;;;;;4996099;28;20247;-68
2023/01/12 06:54:02;;;;;;;3.73;3.33;;;7.30;99.90;;;;;;4997678;28;20204;-68
2023/01/12 06:56:28;;;;;;;3.30;3.10;;;7.30;99.90;;;;;;4997459;28;20282;-68
2023/01/12 06:58:53;;;;;;;3.83;3.47;;;7.30;99.90;;;;;;4997344;28;20231;-68
2023/01/12 07:01:19;;;;;;;3.93;3.40;;;7.30;99.90;;;;;;4997140;28;20200;-68
2023/01/12 07:03:45;;;;;;;4.63;3.50;;;7.30;99.90;;;;;;4997853;28;20259;-68
2023/01/12 07:06:11;;;;;;;3.90;3.60;;;7.30;99.90;;;;;;4997554;28;20192;-68
2023/01/12 07:08:37;;;;;;;3.40;3.10;;;7.30;99.90;;;;;;4997736;28;20176;-68
2023/01/12 07:11:06;;;;;;;4.23;3.53;;;7.40;99.90;;;;;;4997704;28;20235;-68
2023/01/12 07:13:33;;;;;;;3.53;3.33;;;7.40;99.90;;;;;;4997289;28;20176;-68
2023/01/12 07:15:59;;;;;;;3.93;3.63;;;7.40;99.90;;;;;;4997490;28;20287;-67
2023/01/12 07:18:26;;;;;;;3.80;3.50;;;7.40;99.90;;;;;;4997536;28;20204;-68
2023/01/12 07:20:53;;;;;;;3.53;3.30;;;7.40;99.90;;;;;;4997452;28;20187;-68
2023/01/12 07:23:18;;;;;;;3.80;3.47;;;7.40;99.90;;;;;;5012262;28;20177;-68
2023/01/12 07:25:44;;;;;;;3.60;3.40;;;7.50;99.90;;;;;;4995251;28;20188;-68
2023/01/12 07:28:10;;;;;;;4.00;3.70;;;7.50;99.90;;;;;;4997667;28;20537;-68
2023/01/12 07:30:36;;;;;;;3.80;3.50;;;7.50;99.90;;;;;;4996626;28;20223;-67
2023/01/12 07:33:09;;;;;;;3.30;3.20;;;7.60;99.90;;;;;;4997145;28;20207;-68
2023/01/12 07:35:35;;;;;;;3.50;3.30;;;7.60;99.90;;;;;;4997843;28;20561;-67
2023/01/12 07:38:01;;;;;;;3.20;3.07;;;7.60;99.90;;;;;;4997229;28;20177;-68
2023/01/12 07:40:27;;;;;;;4.37;3.87;;;7.60;99.90;;;;;;5012252;28;20187;-68
2023/01/12 07:43:05;;;;;;;3.50;3.20;;;7.50;99.90;;;;;;4997161;28;20587;-67
2023/01/12 07:45:31;;;;;;;3.40;3.10;;;7.50;99.90;;;;;;4997548;28;20191;-68
2023/01/12 07:47:57;;;;;;;3.73;3.50;;;7.50;99.90;;;;;;4997611;28;20660;-68
2023/01/12 07:50:24;;;;;;;3.50;3.30;;;7.50;99.90;;;;;;4998104;28;20181;-68
2023/01/12 07:52:51;;;;;;;3.60;3.40;;;7.50;99.90;;;;;;4996717;28;20271;-66
2023/01/12 07:55:18;;;;;;;3.53;3.33;;;7.50;99.90;;;;;;4997658;28;20189;-66
2023/01/12 07:58:07;;;;;;;3.70;3.40;;;7.50;99.90;;;;;;4997418;28;20176;-64
2023/01/12 08:00:33;;;;;;;3.80;3.50;;;7.60;99.90;;;;;;5011512;28;20196;-71
2023/01/12 08:03:08;;;;;;;3.93;3.50;;;7.60;99.90;;;;;;4996405;28;20192;-65
2023/01/12 08:05:35;;;;;;;3.30;3.20;;;7.60;99.90;;;;;;4996440;28;20668;-64
2023/01/12 08:08:01;;;;;;;3.90;3.60;;;7.60;99.90;;;;;;4996531;28;20184;-65
2023/01/12 08:10:27;;;;;;;3.67;3.27;;;7.60;99.90;;;;;;4996220;28;20187;-65
2023/01/12 08:12:53;;;;;;;3.90;3.57;;;7.60;99.90;;;;;;5011100;28;20298;-65
2023/01/12 08:15:19;;;;;;;3.70;3.40;;;7.60;99.90;;;;;;5010842;28;20188;-64
2023/01/12 08:18:08;;;;;;;4.07;3.67;;;7.70;99.90;;;;;;4995709;28;20184;-64
2023/01/12 08:20:35;;;;;;;4.87;3.70;;;7.70;99.90;;;;;;4993991;28;20228;-64
2023/01/12 08:23:14;;;;;;;4.17;3.77;;;7.80;99.90;;;;;;4995685;28;20669;-65
2023/01/12 08:25:44;;;;;;;4.17;3.87;;;7.80;99.90;;;;;;4995837;28;20208;-65
2023/01/12 08:28:17;;;;;;;4.30;4.00;;;7.80;99.90;;;;;;4995561;28;20184;-64
2023/01/12 08:30:46;;;;;;;4.20;3.90;;;7.90;99.90;;;;;;4995779;28;20235;-64
2023/01/12 08:33:11;;;;;;;4.10;3.80;;;7.90;99.90;;;;;;4995530;28;20609;-64
2023/01/12 08:35:38;;;;;;;4.33;3.93;;;7.90;99.90;;;;;;4995435;28;20201;-64
2023/01/12 08:38:04;;;;;;;6.87;4.27;;;7.90;99.90;;;;;;5010326;28;20180;-65
2023/01/12 08:41:31;;;;;;;4.67;3.90;;;8.00;99.90;;;;;;4995322;28;20525;-64
2023/01/12 08:44:00;;;;;;;6.17;4.57;;;8.00;99.90;;;;;;4994951;28;20294;-64
2023/01/12 08:46:06;;;;;;;4.77;4.37;;;8.10;99.90;;;;;;4995046;28;20188;-64
2023/01/12 08:48:34;;;;;;;4.43;4.13;;;8.10;99.90;;;;;;4994161;28;20540;-64
2023/01/12 08:51:00;;;;;;;5.73;4.23;;;8.10;99.90;;;;;;5010114;28;20560;-64
2023/01/12 08:53:25;;;;;;;4.53;4.20;;;8.20;99.90;;;;;;4993849;28;20195;-64
2023/01/12 08:55:52;;;;;;;4.33;4.03;;;8.20;99.90;;;;;;4994868;28;20208;-64
2023/01/12 08:58:18;;;;;;;6.40;4.20;;;8.20;99.90;;;;;;4995172;28;20180;-64
2023/01/12 09:00:44;;;;;;;4.70;4.30;;;8.30;99.90;;;;;;4994822;28;20190;-65
2023/01/12 09:03:10;;;;;;;5.67;4.07;;;8.30;99.90;;;;;;4994862;28;20200;-64
2023/01/12 09:05:35;;;;;;;6.27;4.50;;;8.30;99.90;;;;;;4994859;28;20185;-64
2023/01/12 09:08:01;;;;;;;6.63;5.07;;;8.30;99.90;;;;;;4995381;28;20188;-64
2023/01/12 09:10:27;;;;;;;4.87;4.07;;;8.30;99.90;;;;;;5009874;28;20608;-64
2023/01/12 09:12:52;;;;;;;4.67;4.27;;;8.40;99.90;;;;;;4994773;28;20207;-64
2023/01/12 09:15:18;;;;;;;5.00;4.20;;;8.50;99.90;;;;;;4994752;28;20204;-64
2023/01/12 09:17:44;;;;;;;7.43;4.90;;;8.50;99.90;;;;;;4994646;28;20208;-64
2023/01/12 09:20:10;;;;;;;5.83;4.60;;;8.60;99.90;;;;;;4995308;28;20183;-64
2023/01/12 09:22:36;;;;;;;7.60;4.60;;;8.60;99.90;;;;;;4994478;28;20203;-64
2023/01/12 09:25:02;;;;;;;5.07;4.60;;;8.60;99.90;;;;;;4995231;28;20173;-64
2023/01/12 09:27:29;;;;;;;5.20;4.70;;;8.70;99.90;;;;;;4994636;28;20191;-64
2023/01/12 09:29:55;;;;;;;6.30;4.60;;;8.70;99.90;;;;;;5009598;28;20220;-64
2023/01/12 09:32:20;;;;;;;5.43;4.70;;;8.70;99.90;;;;;;4994259;28;20231;-64
2023/01/12 09:34:47;;;;;;;5.50;4.70;;;8.70;99.90;;;;;;4995398;28;20180;-65
2023/01/12 09:37:13;;;;;;;6.40;4.80;;;8.70;99.90;;;;;;4995204;28;20231;-64
2023/01/12 09:39:39;;;;;;;5.53;4.50;;;8.70;99.90;;;;;;4993211;28;20192;-65
2023/01/12 09:47:47;;;;;;;7.37;4.40;;;8.90;99.90;;;;;;4994636;28;20207;-64
2023/01/12 09:50:27;;;;;;;8.77;4.83;;;8.80;99.90;;;;;;4993729;28;20173;-64
2023/01/12 09:53:10;;;;;;;4.83;4.20;;;8.90;99.90;;;;;;4994431;28;20207;-64
2023/01/12 09:55:48;;;;;;;5.73;4.60;;;8.90;99.90;;;;;;4994101;28;20192;-64
2023/01/12 09:58:20;;;;;;;4.60;4.20;;;8.90;99.90;;;;;;4994046;28;20165;-64
2023/01/12 10:00:51;;;;;;;4.47;4.00;;;8.90;99.90;;;;;;4993945;28;20184;-64
2023/01/12 10:03:30;;;;;;;4.67;4.20;;;8.90;99.90;;;;;;4994031;28;20580;-64
2023/01/12 10:06:01;;;;;;;4.43;4.07;;;9.00;99.90;;;;;;4994442;28;20211;-64
2023/01/12 10:08:37;;;;;;;5.33;4.20;;;9.00;99.90;;;;;;4994347;28;20160;-64
2023/01/12 10:11:09;;;;;;;5.83;4.00;;;9.00;99.90;;;;;;4994278;28;20172;-64
2023/01/12 10:14:13;;;;;;;4.17;3.97;;;9.00;99.90;;;;;;4994048;28;20173;-64
2023/01/12 10:16:56;;;;;;;5.50;4.00;;;9.00;99.90;;;;;;4990885;28;20220;-63
2023/01/12 10:19:37;;;;;;;4.40;4.00;;;9.10;99.90;;;;;;4994525;28;20164;-64
2023/01/12 10:22:38;;;;;;;4.97;4.17;;;9.10;99.90;;;;;;4993885;28;20204;-64
2023/01/12 10:25:25;;;;;;;4.83;3.90;;;9.10;99.90;;;;;;5009131;28;20190;-64
2023/01/12 10:27:56;;;;;;;4.30;4.00;;;9.10;99.90;;;;;;4994048;28;20632;-64
2023/01/12 10:30:27;;;;;;;4.47;4.07;;;9.10;99.90;;;;;;4994018;28;20195;-64
2023/01/12 10:32:53;;;;;;;4.87;3.93;;;9.10;99.90;;;;;;4993506;28;20200;-64
2023/01/12 10:35:21;;;;;;;3.90;3.70;;;9.10;99.90;;;;;;4993674;28;20236;-64
2023/01/12 10:37:53;;;;;;;4.10;3.57;;;9.20;99.90;;;;;;4992455;28;20216;-64
2023/01/12 10:40:26;;;;;;;5.60;4.37;;;9.20;99.90;;;;;;4992351;28;20180;-64
2023/01/12 10:43:18;;;;;;;5.23;3.90;;;9.40;99.90;;;;;;4993416;28;20299;-64
2023/01/12 10:46:09;;;;;;;5.57;4.33;;;9.40;99.90;;;;;;4987219;28;20239;-64
2023/01/12 10:48:37;;;;;;;6.10;4.00;;;9.40;99.90;;;;;;4994309;28;20168;-69
2023/01/12 10:51:07;;;;;;;3.97;3.67;;;9.40;99.90;;;;;;4994289;28;20177;-69
2023/01/12 10:53:51;;;;;;;5.20;3.73;;;9.40;99.90;;;;;;4992544;28;20208;-69
2023/01/12 10:56:34;;;;;;;4.53;3.70;;;9.40;99.90;;;;;;4992190;28;20207;-64
2023/01/12 10:59:15;;;;;;;4.97;3.60;;;9.40;99.90;;;;;;5008552;28;20200;-65
2023/01/12 11:02:12;;;;;;;7.00;3.63;;;9.40;99.90;;;;;;4995199;28;20204;-66
2023/01/12 11:04:39;;;;;;;6.13;3.80;;;9.40;99.90;;;;;;4997682;28;20183;-65
2023/01/12 11:07:09;;;;;;;4.17;3.33;;;9.40;99.90;;;;;;4995849;28;20188;-65
2023/01/12 11:09:36;;;;;;;3.50;3.30;;;9.30;99.90;;;;;;5012098;28;20184;-63
2023/01/12 11:12:05;;;;;;;3.70;3.40;;;9.30;99.90;;;;;;4996964;28;20200;-62
2023/01/12 11:14:38;;;;;;;6.07;3.50;;;9.30;99.90;;;;;;4995686;28;20188;-62
2023/01/12 11:17:27;;;;;;;3.90;3.37;;;9.30;99.90;;;;;;4997055;28;20637;-62
2023/01/12 11:19:55;;;;;;;4.37;3.43;;;9.30;99.90;;;;;;4968846;28;20185;-63
2023/01/12 11:22:29;;;;;;;4.43;3.40;;;9.30;99.90;;;;;;4996904;28;20235;-63
2023/01/12 11:25:20;;;;;;;3.93;3.60;;;9.30;99.90;;;;;;4997543;28;20256;-64
2023/01/12 11:28:06;;;;;;;6.77;3.80;;;9.30;99.90;;;;;;5012093;28;20184;-65
2023/01/12 11:30:43;;;;;;;4.10;3.80;;;9.30;99.90;;;;;;4997302;28;20653;-66
2023/01/12 11:33:27;;;;;;;5.03;3.60;;;9.40;99.90;;;;;;5011772;28;20204;-66
2023/01/12 11:36:09;;;;;;;4.03;3.63;;;9.40;99.90;;;;;;4996940;28;20202;-66
2023/01/12 11:38:39;;;;;;;6.50;3.90;;;9.40;99.90;;;;;;4996582;28;20173;-66
2023/01/12 11:41:25;;;;;;;4.10;3.70;;;9.40;99.90;;;;;;4996695;28;20629;-66
2023/01/12 11:44:19;;;;;;;3.80;3.40;;;9.40;99.90;;;;;;4995070;28;20665;-67
2023/01/12 11:46:48;;;;;;;4.50;3.80;;;9.40;99.90;;;;;;5011415;28;20300;-67
2023/01/12 11:49:35;;;;;;;3.63;3.40;;;9.50;99.90;;;;;;4996871;28;20189;-65
2023/01/12 11:52:01;;;;;;;3.20;3.00;;;9.50;99.90;;;;;;4996373;28;20590;-66
2023/01/12 11:54:30;;;;;;;3.83;3.50;;;9.50;99.90;;;;;;4996704;28;20176;-66
2023/01/12 11:57:13;;;;;;;4.87;3.40;;;9.50;99.90;;;;;;4994878;28;20219;-69
2023/01/12 11:59:58;;;;;;;4.13;3.47;;;9.40;99.90;;;;;;4996507;28;20165;-66
2023/01/12 12:02:27;;;;;;;3.83;3.53;;;9.40;99.90;;;;;;4995799;28;20223;-66
2023/01/12 12:05:20;;;;;;;3.43;3.13;;;9.40;99.90;;;;;;4996146;28;20172;-66
2023/01/12 12:07:52;;;;;;;3.77;3.47;;;9.40;99.90;;;;;;4996066;28;20165;-66
2023/01/12 12:10:24;;;;;;;3.70;3.33;;;9.40;99.90;;;;;;4996166;28;20168;-66
2023/01/12 12:13:35;;;;;;;7.33;3.70;;;9.40;99.90;;;;;;4995819;28;20193;-66
2023/01/12 12:16:27;;;;;;;4.07;3.57;;;9.40;99.90;;;;;;4996458;28;20188;-66
2023/01/12 12:18:56;;;;;;;4.37;3.77;;;9.40;99.90;;;;;;4996438;28;20165;-66
2023/01/12 12:21:37;;;;;;;4.17;3.73;;;9.40;99.90;;;;;;4995983;28;20196;-66
2023/01/12 12:24:09;;;;;;;4.37;3.97;;;9.40;99.90;;;;;;4996264;28;20180;-66
2023/01/12 12:26:39;;;;;;;4.53;3.87;;;9.40;99.90;;;;;;5010869;28;20596;-66
2023/01/12 12:29:22;;;;;;;4.30;3.90;;;9.30;99.90;;;;;;4995909;28;20256;-65
2023/01/12 12:32:20;;;;;;;6.20;4.33;;;9.30;99.90;;;;;;4995704;28;20204;-66
2023/01/12 12:35:03;;;;;;;5.30;4.10;;;9.30;99.90;;;;;;5010875;28;20219;-66
2023/01/12 12:38:03;;;;;;;5.53;3.97;;;9.30;99.90;;;;;;4995422;28;20677;-66
2023/01/12 12:46:34;;;;;;;6.27;4.00;;;9.40;99.90;;;;;;4995582;28;20170;-66
2023/01/12 12:49:06;;;;;;;5.47;3.97;;;9.40;99.90;;;;;;4995615;28;20640;-66
2023/01/12 12:51:35;;;;;;;6.13;3.83;;;9.40;99.90;;;;;;4995220;28;20227;-66
2023/01/12 12:54:05;;;;;;;4.37;3.97;;;9.40;99.90;;;;;;4995191;28;20192;-66
2023/01/12 12:56:34;;;;;;;6.03;4.23;;;9.40;99.90;;;;;;4995153;28;20232;-66
2023/01/12 12:59:02;;;;;;;5.50;4.13;;;9.40;99.90;;;;;;4995066;28;20522;-66
2023/01/12 13:01:28;;;;;;;5.10;4.00;;;9.40;99.90;;;;;;4994722;28;20212;-66
2023/01/12 13:03:55;;;;;;;5.20;4.10;;;9.40;99.90;;;;;;4995233;28;20553;-66
2023/01/12 13:06:28;;;;;;;5.77;3.60;;;9.40;99.90;;;;;;4993756;28;20185;-66
2023/01/12 13:09:15;;;;;;;6.33;4.00;;;9.40;99.90;;;;;;4994993;28;20168;-66
2023/01/12 13:12:07;;;;;;;4.23;3.93;;;9.40;99.90;;;;;;4984363;28;20306;-66
2023/01/12 13:14:35;;;;;;;5.10;4.20;;;9.40;99.90;;;;;;4992152;28;20684;-66
2023/01/12 13:17:05;;;;;;;5.87;3.90;;;9.40;99.90;;;;;;4994813;28;20223;-66
2023/01/12 13:19:38;;;;;;;4.40;4.00;;;9.40;99.90;;;;;;4995070;28;20602;-66
2023/01/12 13:22:27;;;;;;;5.00;4.20;;;9.40;99.90;;;;;;4994629;28;20283;-66
2023/01/12 13:24:59;;;;;;;3.73;3.50;;;9.40;99.90;;;;;;4994211;28;20169;-66
2023/01/12 13:27:58;;;;;;;5.30;4.00;;;9.50;99.90;;;;;;4994886;28;20223;-66
2023/01/12 13:30:27;;;;;;;4.60;3.80;;;9.50;99.90;;;;;;4994443;28;20198;-66
2023/01/12 13:32:59;;;;;;;4.53;4.13;;;9.50;99.90;;;;;;4994289;28;20204;-66
2023/01/12 13:35:34;;;;;;;5.60;4.00;;;9.50;99.90;;;;;;4993263;28;20637;-66
2023/01/12 13:38:37;;;;;;;5.07;3.57;;;9.60;99.90;;;;;;4994570;28;20164;-66
2023/01/12 13:41:12;;;;;;;4.73;3.20;;;9.60;99.90;;;;;;4994559;28;20261;-66
2023/01/12 13:43:56;;;;;;;6.20;5.20;;;9.60;99.90;;;;;;5009200;28;20191;-66
2023/01/12 13:46:35;;;;;;;9.13;6.97;;;9.60;99.90;;;;;;5009409;28;20176;-63
2023/01/12 13:49:02;;;;;;;16.47;12.00;;;9.60;99.90;;;;;;4994541;28;20296;-64
2023/01/12 13:51:45;;;;;;;7.53;5.70;;;9.70;99.90;;;;;;4994700;28;20676;-64
2023/01/12 13:54:13;;;;;;;4.33;3.77;;;9.70;99.90;;;;;;4995623;28;20164;-62